Time;durP1;ratioP1;P1;durP2;ratioP2;P2;SDS_P1;SDS_P2;PMS_P1;PMS_P2;Temp;Humidity;BMP_temperature;BMP_pressure;BME280_temperature;BME280_humidity;BME280_pressure;Samples;Min_cycle;Max_cycle;Signal;HPM_P1;HPM_P2
2021/11/26 00:01:33;;;;;;;41.15;18.55;;;3.80;99.90;;;;;;4992224;28;20756;-61
2021/11/26 00:04:02;;;;;;;32.70;19.25;;;3.80;99.90;;;;;;4991442;28;20253;-61
2021/11/26 00:06:31;;;;;;;32.22;17.80;;;3.90;99.90;;;;;;4992077;28;20692;-60
2021/11/26 00:09:00;;;;;;;33.15;17.95;;;3.90;99.90;;;;;;4992602;28;20211;-60
2021/11/26 00:11:28;;;;;;;37.60;18.20;;;3.90;99.90;;;;;;4992093;28;20229;-61
2021/11/26 00:14:03;;;;;;;31.10;16.77;;;3.90;99.90;;;;;;4992583;28;20661;-61
2021/11/26 00:16:36;;;;;;;31.50;15.23;;;3.90;99.90;;;;;;4992445;28;20250;-60
2021/11/26 00:19:06;;;;;;;33.70;17.10;;;3.90;99.90;;;;;;4992545;28;20249;-59
2021/11/26 00:21:36;;;;;;;28.38;14.73;;;3.90;99.90;;;;;;4996070;28;20214;-61
2021/11/26 00:24:07;;;;;;;32.03;14.75;;;3.80;99.90;;;;;;5011551;28;20664;-60
2021/11/26 00:26:35;;;;;;;31.88;17.60;;;3.80;99.90;;;;;;5011622;28;20284;-60
2021/11/26 00:29:04;;;;;;;30.00;15.38;;;3.80;99.90;;;;;;4993250;28;20210;-60
2021/11/26 00:31:34;;;;;;;28.67;15.50;;;3.80;99.90;;;;;;4991983;28;20281;-61
2021/11/26 00:34:02;;;;;;;33.80;15.20;;;3.90;99.90;;;;;;4991919;28;20194;-61
2021/11/26 00:36:30;;;;;;;27.75;14.20;;;4.00;99.90;;;;;;4991372;28;20219;-60
2021/11/26 00:38:59;;;;;;;30.52;15.48;;;4.00;99.90;;;;;;4992490;28;20217;-60
2021/11/26 00:41:27;;;;;;;25.50;14.68;;;4.00;99.90;;;;;;4991974;28;20234;-60
2021/11/26 00:43:55;;;;;;;28.58;14.48;;;4.00;99.90;;;;;;4991956;28;20587;-61
2021/11/26 00:46:23;;;;;;;31.40;17.30;;;4.10;99.90;;;;;;4991741;28;20298;-59
2021/11/26 00:48:53;;;;;;;29.23;14.73;;;4.20;99.90;;;;;;4992190;28;20577;-60
2021/11/26 00:51:21;;;;;;;27.75;13.80;;;4.20;99.90;;;;;;4992316;28;20223;-61
2021/11/26 00:53:49;;;;;;;29.15;15.98;;;4.30;99.90;;;;;;4992407;28;20613;-61
2021/11/26 00:56:18;;;;;;;29.83;15.57;;;4.30;99.90;;;;;;4991394;28;20223;-59
2021/11/26 00:58:46;;;;;;;28.23;16.88;;;4.30;99.90;;;;;;4992095;28;20198;-60
2021/11/26 01:01:14;;;;;;;31.27;15.50;;;4.40;99.90;;;;;;4991691;28;20230;-60
2021/11/26 01:03:43;;;;;;;32.53;17.05;;;4.40;99.90;;;;;;4992141;28;20301;-60
2021/11/26 01:06:12;;;;;;;28.27;14.77;;;4.40;99.90;;;;;;4991648;28;20276;-59
2021/11/26 01:08:40;;;;;;;30.90;15.88;;;4.40;99.90;;;;;;4992465;28;20218;-59
2021/11/26 01:11:09;;;;;;;30.60;16.05;;;4.50;99.90;;;;;;5006850;28;20241;-60
2021/11/26 01:13:37;;;;;;;34.30;15.63;;;4.50;99.90;;;;;;4991839;28;20194;-60
2021/11/26 01:16:06;;;;;;;30.25;16.05;;;4.50;99.90;;;;;;4991223;28;20696;-60
2021/11/26 01:18:34;;;;;;;31.25;17.02;;;4.50;99.90;;;;;;4991900;28;20214;-59
2021/11/26 01:21:04;;;;;;;31.85;16.55;;;4.50;99.90;;;;;;4991647;28;20221;-61
2021/11/26 01:23:34;;;;;;;35.10;16.42;;;4.50;99.90;;;;;;4995708;28;20203;-61
2021/11/26 01:26:03;;;;;;;25.30;15.13;;;4.50;99.90;;;;;;4995165;28;20241;-59
2021/11/26 01:28:32;;;;;;;32.05;15.13;;;4.50;99.90;;;;;;4994999;28;20688;-60
2021/11/26 01:31:00;;;;;;;33.95;16.13;;;4.50;99.90;;;;;;4995368;28;20313;-61
2021/11/26 01:33:30;;;;;;;27.45;16.90;;;4.50;99.90;;;;;;4995369;28;20269;-61
2021/11/26 01:35:59;;;;;;;25.02;14.52;;;4.60;99.90;;;;;;4995420;28;20349;-59
2021/11/26 01:38:27;;;;;;;35.28;15.77;;;4.60;99.90;;;;;;4995685;28;20207;-59
2021/11/26 01:40:56;;;;;;;28.80;16.00;;;4.60;99.90;;;;;;4994894;28;20241;-60
2021/11/26 01:43:24;;;;;;;27.33;16.38;;;4.70;99.90;;;;;;4995313;28;20206;-61
2021/11/26 01:45:55;;;;;;;27.08;15.82;;;4.70;99.90;;;;;;4994809;28;20219;-60
2021/11/26 01:48:24;;;;;;;30.52;16.27;;;4.70;99.90;;;;;;4995166;28;20272;-60
2021/11/26 01:50:54;;;;;;;42.90;18.70;;;4.70;99.90;;;;;;4993552;28;20219;-60
2021/11/26 01:53:23;;;;;;;41.42;18.05;;;4.70;99.90;;;;;;4995555;28;20519;-61
2021/11/26 01:55:51;;;;;;;25.63;15.60;;;4.70;99.90;;;;;;4994702;28;20264;-60
2021/11/26 01:58:22;;;;;;;28.35;18.05;;;4.70;99.90;;;;;;4995086;28;20589;-60
2021/11/26 02:00:52;;;;;;;34.08;19.08;;;4.70;99.90;;;;;;4995704;28;20226;-61
2021/11/26 02:03:20;;;;;;;31.33;18.48;;;4.60;99.90;;;;;;5013262;28;20286;-62
2021/11/26 02:05:49;;;;;;;32.80;19.00;;;4.60;99.90;;;;;;5013850;28;20225;-60
2021/11/26 02:08:17;;;;;;;25.55;16.95;;;4.60;99.90;;;;;;5000664;28;20297;-59
2021/11/26 02:10:45;;;;;;;24.42;16.52;;;4.70;99.90;;;;;;4994158;28;20233;-61
2021/11/26 02:13:13;;;;;;;25.15;15.88;;;4.70;99.90;;;;;;4995178;28;20203;-61
2021/11/26 02:15:44;;;;;;;30.33;17.60;;;4.80;99.90;;;;;;4994031;28;20222;-60
2021/11/26 02:18:15;;;;;;;30.23;18.67;;;4.80;99.90;;;;;;4994753;28;20210;-59
2021/11/26 02:20:45;;;;;;;30.65;19.55;;;4.70;99.90;;;;;;4992201;28;20217;-61
2021/11/26 02:23:14;;;;;;;35.10;17.60;;;4.60;99.90;;;;;;5012044;28;20221;-61
2021/11/26 02:25:43;;;;;;;28.77;15.63;;;4.60;99.90;;;;;;5013974;28;20248;-61
2021/11/26 02:28:13;;;;;;;26.70;15.77;;;4.70;99.90;;;;;;5001419;28;20211;-60
2021/11/26 02:30:42;;;;;;;28.08;16.60;;;4.70;99.90;;;;;;4994019;28;20269;-61
2021/11/26 02:33:12;;;;;;;26.15;15.70;;;4.70;99.90;;;;;;4994772;28;20249;-61
2021/11/26 02:35:41;;;;;;;21.95;14.25;;;4.70;99.90;;;;;;4994008;28;20237;-62
2021/11/26 02:38:12;;;;;;;33.30;17.55;;;4.70;99.90;;;;;;4994266;28;20275;-60
2021/11/26 02:40:43;;;;;;;27.88;17.17;;;4.80;99.90;;;;;;4994066;28;20226;-62
2021/11/26 02:43:13;;;;;;;25.15;15.40;;;4.70;99.90;;;;;;4993770;28;20198;-62
2021/11/26 02:45:44;;;;;;;25.60;17.17;;;4.80;99.90;;;;;;4993860;28;20621;-61
2021/11/26 02:48:14;;;;;;;23.98;14.90;;;4.80;99.90;;;;;;4994224;28;20207;-60
2021/11/26 02:50:43;;;;;;;30.05;16.75;;;4.80;99.90;;;;;;4995911;28;20490;-61
2021/11/26 02:53:13;;;;;;;25.67;16.25;;;4.80;99.90;;;;;;4994007;28;20190;-60
2021/11/26 02:55:41;;;;;;;31.27;15.50;;;4.80;99.90;;;;;;4993321;28;20214;-61
2021/11/26 02:58:10;;;;;;;25.08;16.13;;;4.90;99.90;;;;;;4994285;28;20538;-60
2021/11/26 03:00:40;;;;;;;25.40;16.60;;;4.90;99.90;;;;;;4993651;28;20573;-60
2021/11/26 03:03:09;;;;;;;29.58;15.68;;;4.80;99.90;;;;;;4993669;28;20289;-61
2021/11/26 03:05:38;;;;;;;29.75;16.38;;;4.80;99.90;;;;;;4993246;28;20771;-61
2021/11/26 03:08:07;;;;;;;22.85;16.55;;;4.80;99.90;;;;;;4993660;28;20219;-60
2021/11/26 03:10:37;;;;;;;23.90;15.57;;;4.90;99.90;;;;;;4993499;28;20226;-61
2021/11/26 03:13:08;;;;;;;20.65;14.70;;;4.90;99.90;;;;;;4994164;28;20199;-61
2021/11/26 03:15:39;;;;;;;27.00;16.40;;;4.90;99.90;;;;;;4992934;28;20226;-62
2021/11/26 03:18:08;;;;;;;25.58;17.15;;;4.80;99.90;;;;;;4993690;28;20261;-60
2021/11/26 03:20:37;;;;;;;24.92;16.63;;;4.80;99.90;;;;;;4993043;28;20317;-61
2021/11/26 03:23:05;;;;;;;26.25;16.00;;;4.80;99.90;;;;;;5009822;28;20607;-61
2021/11/26 03:25:33;;;;;;;28.77;14.38;;;4.80;99.90;;;;;;5012361;28;20226;-61
2021/11/26 03:28:02;;;;;;;22.45;14.15;;;4.90;99.90;;;;;;5002976;28;20421;-60
2021/11/26 03:30:30;;;;;;;28.27;16.15;;;4.90;99.90;;;;;;4992799;28;20230;-60
2021/11/26 03:33:00;;;;;;;24.80;14.07;;;4.90;99.90;;;;;;4993395;28;20198;-62
2021/11/26 03:35:29;;;;;;;19.98;13.82;;;4.90;99.90;;;;;;4992479;28;20218;-61
2021/11/26 03:37:57;;;;;;;23.48;13.48;;;4.90;99.90;;;;;;4993500;28;20378;-60
2021/11/26 03:40:26;;;;;;;21.60;14.70;;;4.90;99.90;;;;;;4992688;28;20249;-60
2021/11/26 03:42:57;;;;;;;18.02;12.63;;;4.80;99.90;;;;;;4993041;28;20202;-61
2021/11/26 03:45:29;;;;;;;20.17;12.55;;;4.80;99.90;;;;;;4991743;28;20616;-62
2021/11/26 03:47:58;;;;;;;16.60;12.02;;;4.80;99.90;;;;;;4992901;28;20215;-60
2021/11/26 03:50:28;;;;;;;19.33;12.80;;;4.70;99.90;;;;;;4992483;28;20632;-60
2021/11/26 03:52:56;;;;;;;22.85;13.88;;;4.70;99.90;;;;;;5009708;28;20205;-61
2021/11/26 03:55:28;;;;;;;21.48;12.80;;;4.80;99.90;;;;;;5014765;28;20291;-62
2021/11/26 03:57:57;;;;;;;21.95;12.27;;;4.80;99.90;;;;;;5008187;28;20214;-61
2021/11/26 04:00:27;;;;;;;20.55;13.70;;;4.80;99.90;;;;;;5012132;28;20229;-60
2021/11/26 04:02:56;;;;;;;18.08;14.07;;;4.80;99.90;;;;;;5014617;28;20280;-62
2021/11/26 04:05:24;;;;;;;16.33;12.30;;;4.80;99.90;;;;;;5023612;28;20257;-61
2021/11/26 04:07:57;;;;;;;19.85;13.55;;;4.80;99.90;;;;;;4998129;28;20246;-60
2021/11/26 04:10:26;;;;;;;23.67;12.73;;;4.80;99.90;;;;;;4992457;28;20226;-59
2021/11/26 04:12:55;;;;;;;18.98;13.02;;;4.80;99.90;;;;;;4992716;28;20195;-61
2021/11/26 04:15:23;;;;;;;20.10;14.07;;;4.80;99.90;;;;;;4992275;28;20668;-60
2021/11/26 04:17:58;;;;;;;22.80;14.10;;;4.70;99.90;;;;;;4992423;28;20214;-59
2021/11/26 04:20:26;;;;;;;17.02;12.60;;;4.70;99.90;;;;;;4992392;28;20226;-60
2021/11/26 04:22:54;;;;;;;23.65;13.48;;;4.70;99.90;;;;;;4992596;28;20294;-63
2021/11/26 04:25:22;;;;;;;20.77;14.40;;;4.70;99.90;;;;;;4991788;28;20752;-62
2021/11/26 04:27:51;;;;;;;19.70;13.70;;;4.70;99.90;;;;;;4992893;28;20215;-60
2021/11/26 04:30:21;;;;;;;21.45;14.35;;;4.70;99.90;;;;;;4991721;28;20218;-60
2021/11/26 04:32:50;;;;;;;17.33;13.45;;;4.70;99.90;;;;;;4992581;28;20198;-60
2021/11/26 04:35:21;;;;;;;16.30;12.68;;;4.80;99.90;;;;;;4991791;28;20221;-62
2021/11/26 04:37:49;;;;;;;16.38;13.25;;;4.80;99.90;;;;;;4991115;28;20218;-60
2021/11/26 04:40:18;;;;;;;19.73;14.13;;;4.80;99.90;;;;;;4991902;28;20222;-59
2021/11/26 04:42:46;;;;;;;18.55;14.23;;;4.80;99.90;;;;;;4992563;28;20257;-61
2021/11/26 04:45:16;;;;;;;20.73;15.02;;;4.70;99.90;;;;;;4991482;28;20272;-62
2021/11/26 04:47:45;;;;;;;20.83;14.20;;;4.70;99.90;;;;;;4992269;28;20281;-60
2021/11/26 04:50:14;;;;;;;18.67;12.95;;;4.80;99.90;;;;;;4991826;28;20588;-60
2021/11/26 04:52:43;;;;;;;23.80;15.00;;;4.80;99.90;;;;;;4992369;28;20198;-61
2021/11/26 04:55:14;;;;;;;22.17;14.85;;;4.80;99.90;;;;;;4991571;28;20211;-61
2021/11/26 04:57:42;;;;;;;22.17;14.27;;;4.80;99.90;;;;;;4995088;28;20202;-60
2021/11/26 05:00:13;;;;;;;19.90;14.50;;;4.70;99.90;;;;;;4995963;28;20225;-59
2021/11/26 05:02:41;;;;;;;18.20;14.55;;;4.80;99.90;;;;;;4996037;28;20201;-61
2021/11/26 05:05:10;;;;;;;16.80;12.68;;;4.70;99.90;;;;;;4995555;28;20272;-61
2021/11/26 05:07:38;;;;;;;21.65;13.88;;;4.70;99.90;;;;;;4995825;28;20247;-60
2021/11/26 05:10:09;;;;;;;22.13;12.38;;;4.80;99.90;;;;;;4995695;28;20222;-60
2021/11/26 05:12:40;;;;;;;13.32;10.95;;;4.80;99.90;;;;;;4995996;28;20236;-62
2021/11/26 05:15:09;;;;;;;13.00;11.40;;;4.80;99.90;;;;;;4995210;28;20273;-61
2021/11/26 05:17:37;;;;;;;12.63;11.10;;;4.80;99.90;;;;;;4995643;28;20242;-60
2021/11/26 05:20:06;;;;;;;11.48;10.23;;;4.70;99.90;;;;;;4995401;28;20269;-60
2021/11/26 05:22:39;;;;;;;16.65;10.20;;;4.70;99.90;;;;;;5008391;28;20189;-61
2021/11/26 05:25:09;;;;;;;9.93;8.93;;;4.70;99.90;;;;;;5014773;28;20217;-61
2021/11/26 05:27:38;;;;;;;11.60;8.70;;;4.70;99.90;;;;;;5007728;28;20284;-60
2021/11/26 05:30:07;;;;;;;10.10;8.25;;;4.60;99.90;;;;;;4995907;28;20218;-60
2021/11/26 05:32:37;;;;;;;12.57;8.40;;;4.60;99.90;;;;;;4995481;28;20206;-61
2021/11/26 05:35:06;;;;;;;12.07;7.45;;;4.70;99.90;;;;;;4994061;28;20218;-61
2021/11/26 05:37:34;;;;;;;10.05;7.95;;;4.70;99.90;;;;;;4995140;28;20214;-60
2021/11/26 05:40:03;;;;;;;8.45;7.65;;;4.70;99.90;;;;;;4994902;28;20249;-60
2021/11/26 05:42:34;;;;;;;8.68;7.88;;;4.60;99.90;;;;;;4995294;28;20202;-61
2021/11/26 05:45:03;;;;;;;10.25;8.23;;;4.60;99.90;;;;;;4994905;28;20218;-61
2021/11/26 05:47:31;;;;;;;9.45;7.75;;;4.60;99.90;;;;;;4995336;28;20218;-59
2021/11/26 05:50:20;;;;;;;11.48;8.82;;;4.70;99.90;;;;;;4995202;28;20310;-60
2021/11/26 05:52:52;;;;;;;9.32;7.25;;;4.70;99.90;;;;;;4995284;28;20193;-61
2021/11/26 05:55:23;;;;;;;10.23;8.07;;;4.70;99.90;;;;;;4994395;28;20225;-60
2021/11/26 05:57:53;;;;;;;12.48;7.60;;;4.70;99.90;;;;;;4994926;28;20214;-59
2021/11/26 06:00:23;;;;;;;8.98;7.40;;;4.70;99.90;;;;;;4994724;28;20242;-60
2021/11/26 06:02:53;;;;;;;10.77;8.93;;;4.70;99.90;;;;;;4995080;28;20218;-61
2021/11/26 06:05:21;;;;;;;12.90;9.25;;;4.60;99.90;;;;;;4994247;28;20226;-61
2021/11/26 06:07:49;;;;;;;11.25;9.50;;;4.60;99.90;;;;;;4995812;28;20289;-60
2021/11/26 06:10:18;;;;;;;11.90;9.48;;;4.60;99.90;;;;;;4995044;28;20229;-60
2021/11/26 06:12:48;;;;;;;13.80;10.93;;;4.70;99.90;;;;;;4995399;28;20213;-60
2021/11/26 06:15:19;;;;;;;16.35;9.82;;;4.70;99.90;;;;;;4994097;28;20218;-61
2021/11/26 06:17:48;;;;;;;10.75;9.40;;;4.70;99.90;;;;;;4994597;28;20203;-60
2021/11/26 06:20:17;;;;;;;13.43;10.25;;;4.70;99.90;;;;;;4994245;28;20225;-60
2021/11/26 06:22:45;;;;;;;11.85;9.95;;;4.70;99.90;;;;;;5008198;28;20224;-62
2021/11/26 06:25:16;;;;;;;12.10;8.43;;;4.70;99.90;;;;;;5013413;28;20232;-60
2021/11/26 06:27:46;;;;;;;11.77;7.57;;;4.70;99.90;;;;;;5006488;28;20222;-61
2021/11/26 06:30:17;;;;;;;8.52;7.63;;;4.70;99.90;;;;;;4993838;28;20700;-59
2021/11/26 06:32:47;;;;;;;10.10;7.25;;;4.60;99.90;;;;;;4994977;28;20243;-61
2021/11/26 06:35:19;;;;;;;9.38;6.75;;;4.50;99.90;;;;;;4993920;28;20280;-61
2021/11/26 06:37:47;;;;;;;10.02;6.78;;;4.40;99.90;;;;;;4994016;28;20218;-60
2021/11/26 06:40:17;;;;;;;9.32;8.02;;;4.40;99.90;;;;;;4993976;28;20763;-60
2021/11/26 06:42:45;;;;;;;9.60;6.85;;;4.40;99.90;;;;;;4994182;28;20278;-61
2021/11/26 06:45:13;;;;;;;5.85;5.30;;;4.50;99.90;;;;;;4993705;28;20218;-61
2021/11/26 06:47:42;;;;;;;6.97;6.15;;;4.40;99.90;;;;;;4994171;28;20771;-61
2021/11/26 06:50:11;;;;;;;7.70;5.53;;;4.40;99.90;;;;;;5001786;28;20805;-60
2021/11/26 06:52:40;;;;;;;6.65;5.05;;;4.40;99.90;;;;;;4999400;28;20202;-61
2021/11/26 06:55:09;;;;;;;7.68;5.55;;;4.40;99.90;;;;;;4987173;28;20219;-61
2021/11/26 06:57:38;;;;;;;8.68;5.00;;;4.40;99.90;;;;;;4974578;28;20273;-60
2021/11/26 07:00:07;;;;;;;6.53;5.55;;;4.40;99.90;;;;;;4987695;28;20214;-59
2021/11/26 07:02:36;;;;;;;7.35;5.20;;;4.30;99.90;;;;;;5013608;28;20230;-61
2021/11/26 07:05:06;;;;;;;7.65;6.68;;;4.30;99.90;;;;;;5007488;28;20272;-60
2021/11/26 07:07:35;;;;;;;5.97;5.38;;;4.30;99.90;;;;;;4993376;28;20225;-61
2021/11/26 07:10:04;;;;;;;7.15;5.45;;;4.30;99.90;;;;;;4992991;28;20245;-59
2021/11/26 07:12:34;;;;;;;7.72;5.40;;;4.30;99.90;;;;;;4987599;28;20213;-59
2021/11/26 07:15:06;;;;;;;6.68;4.63;;;4.30;99.90;;;;;;4973704;28;20249;-61
2021/11/26 07:17:34;;;;;;;5.20;4.30;;;4.30;99.90;;;;;;4974370;28;20218;-61
2021/11/26 07:20:05;;;;;;;11.18;5.53;;;4.30;99.90;;;;;;4971471;28;20625;-59
2021/11/26 07:22:34;;;;;;;5.35;4.78;;;4.30;99.90;;;;;;4986234;28;20253;-60
2021/11/26 07:25:02;;;;;;;6.32;5.20;;;4.30;99.90;;;;;;4992802;28;20589;-60
2021/11/26 07:27:30;;;;;;;7.38;5.57;;;4.30;99.90;;;;;;4987684;28;20586;-62
2021/11/26 07:29:58;;;;;;;5.97;5.32;;;4.30;99.90;;;;;;4973437;28;20229;-59
2021/11/26 07:32:27;;;;;;;10.00;6.93;;;4.30;99.90;;;;;;4974065;28;20187;-59
2021/11/26 07:34:55;;;;;;;10.82;6.50;;;4.30;99.90;;;;;;4973442;28;20219;-61
2021/11/26 07:37:25;;;;;;;8.32;6.70;;;4.30;99.90;;;;;;4974118;28;20254;-61
2021/11/26 07:39:54;;;;;;;8.35;5.65;;;4.30;99.90;;;;;;4973268;28;20226;-60
2021/11/26 07:42:22;;;;;;;11.82;6.85;;;4.30;99.90;;;;;;4973626;28;20254;-60
2021/11/26 07:44:50;;;;;;;9.90;7.05;;;4.30;99.90;;;;;;4971619;28;20226;-61
2021/11/26 07:47:19;;;;;;;9.90;7.32;;;4.40;99.90;;;;;;4973566;28;20211;-62
2021/11/26 07:49:52;;;;;;;9.15;7.18;;;4.40;99.90;;;;;;4973446;28;20307;-60
2021/11/26 07:52:23;;;;;;;13.57;8.75;;;4.40;99.90;;;;;;4972615;28;20194;-59
2021/11/26 07:54:52;;;;;;;17.75;8.90;;;4.40;99.90;;;;;;4973009;28;20250;-62
2021/11/26 07:57:20;;;;;;;14.45;9.27;;;4.50;99.90;;;;;;4973167;28;20238;-61
2021/11/26 07:59:48;;;;;;;12.55;8.63;;;4.50;99.90;;;;;;4981127;28;20273;-60
2021/11/26 08:02:17;;;;;;;16.92;10.52;;;4.50;99.90;;;;;;4993001;28;20199;-60
2021/11/26 08:04:45;;;;;;;13.82;10.05;;;4.60;99.90;;;;;;4986451;28;20685;-61
2021/11/26 08:07:13;;;;;;;15.35;9.70;;;4.60;99.90;;;;;;4985613;28;20222;-61
2021/11/26 08:09:44;;;;;;;16.50;11.20;;;4.60;99.90;;;;;;4992199;28;20561;-60
2021/11/26 08:12:16;;;;;;;17.50;10.88;;;4.70;99.90;;;;;;4990190;28;20501;-59
2021/11/26 08:14:47;;;;;;;17.67;11.02;;;4.70;99.90;;;;;;4993047;28;20275;-57
2021/11/26 08:17:15;;;;;;;20.73;12.45;;;4.70;99.90;;;;;;5012286;28;20284;-59
2021/11/26 08:19:44;;;;;;;25.58;13.00;;;4.70;99.90;;;;;;5019164;28;20244;-57
2021/11/26 08:22:15;;;;;;;20.35;11.10;;;4.70;99.90;;;;;;4997128;28;20195;-57
2021/11/26 08:24:45;;;;;;;25.08;12.32;;;4.70;99.90;;;;;;5011076;28;20221;-59
2021/11/26 08:27:13;;;;;;;25.98;12.80;;;4.80;99.90;;;;;;5011182;28;20700;-57
2021/11/26 08:29:41;;;;;;;19.10;12.57;;;4.80;99.90;;;;;;4988261;28;20202;-58
2021/11/26 08:32:10;;;;;;;20.27;12.45;;;4.70;99.90;;;;;;4984577;28;20236;-56
2021/11/26 08:34:38;;;;;;;26.73;12.80;;;4.70;99.90;;;;;;4999161;28;20274;-58
2021/11/26 08:37:06;;;;;;;23.65;12.55;;;4.80;99.90;;;;;;4988070;28;20210;-58
2021/11/26 08:39:35;;;;;;;24.90;12.48;;;4.80;99.90;;;;;;4992571;28;20583;-58
2021/11/26 08:42:05;;;;;;;20.30;12.43;;;4.80;99.90;;;;;;4989724;28;20194;-58
2021/11/26 08:44:33;;;;;;;25.67;12.65;;;4.80;99.90;;;;;;4979138;28;20837;-58
2021/11/26 08:47:01;;;;;;;21.88;10.93;;;4.90;99.90;;;;;;5008962;28;20210;-58
2021/11/26 08:49:29;;;;;;;26.05;11.90;;;5.00;99.90;;;;;;5011421;28;20272;-58
2021/11/26 08:51:57;;;;;;;19.60;10.65;;;5.00;99.90;;;;;;4993539;28;20198;-58
2021/11/26 08:54:26;;;;;;;16.83;10.15;;;5.00;99.90;;;;;;4983467;28;20189;-59
2021/11/26 08:56:55;;;;;;;18.67;11.50;;;4.90;99.90;;;;;;4990083;28;20644;-57
2021/11/26 08:59:25;;;;;;;20.23;10.50;;;4.80;99.90;;;;;;5005344;28;20218;-60
2021/11/26 09:01:54;;;;;;;16.98;11.18;;;4.90;99.90;;;;;;4996216;28;20541;-57
2021/11/26 09:04:24;;;;;;;21.45;10.60;;;4.80;99.90;;;;;;4991765;28;20195;-58
2021/11/26 09:06:53;;;;;;;27.50;12.50;;;4.90;99.90;;;;;;4989888;28;20247;-58
2021/11/26 09:09:23;;;;;;;20.35;11.00;;;4.90;99.90;;;;;;4972814;28;20249;-57
2021/11/26 09:11:52;;;;;;;21.83;10.88;;;4.90;99.90;;;;;;4998808;28;20229;-57
2021/11/26 09:14:22;;;;;;;20.83;10.90;;;4.90;99.90;;;;;;4992713;28;20202;-57
2021/11/26 09:16:52;;;;;;;19.00;10.48;;;4.90;99.90;;;;;;5010910;28;20308;-58
2021/11/26 09:19:20;;;;;;;14.80;9.88;;;4.90;99.90;;;;;;5011106;28;20202;-57
2021/11/26 09:21:49;;;;;;;18.02;10.50;;;4.80;99.90;;;;;;5007010;28;20210;-57
2021/11/26 09:24:17;;;;;;;23.27;10.93;;;4.90;99.90;;;;;;4991964;28;20191;-56
2021/11/26 09:26:45;;;;;;;16.27;9.00;;;4.90;99.90;;;;;;5009897;28;20282;-59
2021/11/26 09:29:13;;;;;;;13.85;9.07;;;4.90;99.90;;;;;;4990739;28;20257;-57
2021/11/26 09:31:42;;;;;;;17.63;9.90;;;4.90;99.90;;;;;;5011087;28;20581;-58
2021/11/26 09:34:11;;;;;;;18.90;9.93;;;4.90;99.90;;;;;;4994973;28;20195;-57
2021/11/26 09:36:40;;;;;;;14.25;7.05;;;4.90;99.90;;;;;;5007361;28;20305;-58
2021/11/26 09:39:08;;;;;;;15.00;8.82;;;4.90;99.90;;;;;;5011063;28;20198;-58
2021/11/26 09:41:36;;;;;;;15.65;7.30;;;4.90;99.90;;;;;;5029447;28;20272;-57
2021/11/26 09:44:07;;;;;;;14.88;7.55;;;5.00;99.90;;;;;;4996327;28;20720;-57
2021/11/26 09:46:38;;;;;;;18.60;8.43;;;4.90;99.90;;;;;;5016394;28;20295;-59
2021/11/26 09:49:08;;;;;;;13.38;7.00;;;4.90;99.90;;;;;;5006362;28;20233;-58
2021/11/26 09:51:37;;;;;;;12.77;7.20;;;4.90;99.90;;;;;;5002702;28;20680;-57
2021/11/26 09:54:06;;;;;;;12.90;7.70;;;4.80;99.90;;;;;;5016431;28;20193;-57
2021/11/26 09:56:35;;;;;;;11.13;7.75;;;4.90;99.90;;;;;;5014189;28;20229;-59
2021/11/26 09:59:03;;;;;;;11.13;6.82;;;4.80;99.90;;;;;;5021711;28;20254;-60
2021/11/26 10:01:31;;;;;;;13.07;6.07;;;4.90;99.90;;;;;;5005239;28;20277;-57
2021/11/26 10:04:00;;;;;;;16.70;7.18;;;4.80;99.90;;;;;;5014556;28;20296;-58
2021/11/26 10:06:37;;;;;;;12.23;7.00;;;4.80;99.90;;;;;;5012343;28;20304;-59
2021/11/26 10:09:08;;;;;;;9.57;6.60;;;4.90;99.90;;;;;;5019265;28;20193;-58
2021/11/26 10:11:45;;;;;;;12.30;6.65;;;4.90;99.90;;;;;;5033930;28;20236;-57
2021/11/26 10:14:20;;;;;;;12.00;5.88;;;4.90;99.90;;;;;;5007006;28;20204;-57
2021/11/26 10:17:07;;;;;;;20.92;5.70;;;4.80;99.90;;;;;;5002012;28;20305;-59
2021/11/26 10:19:38;;;;;;;12.55;5.90;;;4.90;99.90;;;;;;5013638;28;20217;-57
2021/11/26 10:22:15;;;;;;;10.93;6.60;;;4.90;99.90;;;;;;4997092;28;20222;-57
2021/11/26 10:24:57;;;;;;;12.95;5.97;;;4.80;99.90;;;;;;5013414;28;20190;-57
2021/11/26 10:27:42;;;;;;;6.70;5.10;;;4.90;99.90;;;;;;4995869;28;20254;-58
2021/11/26 10:30:19;;;;;;;8.13;5.47;;;4.90;99.90;;;;;;5010574;28;20218;-58
2021/11/26 10:33:00;;;;;;;10.65;5.20;;;4.80;99.90;;;;;;5013089;28;20193;-58
2021/11/26 10:35:31;;;;;;;15.35;5.55;;;4.90;99.90;;;;;;5013108;28;20226;-59
2021/11/26 10:38:03;;;;;;;7.30;5.03;;;4.80;99.90;;;;;;5000015;28;20217;-59
2021/11/26 10:40:34;;;;;;;9.95;5.13;;;4.80;99.90;;;;;;5013596;28;20695;-57
2021/11/26 10:43:05;;;;;;;12.20;5.20;;;4.80;99.90;;;;;;5012511;28;20320;-56
2021/11/26 10:51:31;;;;;;;11.75;4.80;;;5.00;99.90;;;;;;5007198;28;20225;-58
2021/11/26 10:57:21;;;;;;;6.43;4.60;;;5.10;99.90;;;;;;5026056;23;20224;-59
2021/11/26 10:59:49;;;;;;;8.55;3.72;;;5.10;99.90;;;;;;5003460;28;20225;-59
2021/11/26 11:02:27;;;;;;;6.03;3.08;;;5.10;99.90;;;;;;5013322;28;20311;-59
2021/11/26 11:04:55;;;;;;;8.88;3.50;;;5.10;99.90;;;;;;4993209;28;20225;-59
2021/11/26 11:07:24;;;;;;;14.07;4.22;;;5.00;99.90;;;;;;5005881;28;20225;-59
2021/11/26 11:09:54;;;;;;;4.85;3.33;;;5.00;99.90;;;;;;5012751;28;20228;-59
2021/11/26 11:12:31;;;;;;;5.57;2.78;;;5.00;99.90;;;;;;5008357;28;20675;-59
2021/11/26 11:15:04;;;;;;;5.70;3.03;;;5.00;99.90;;;;;;5007115;28;20305;-59
2021/11/26 11:17:34;;;;;;;5.03;3.05;;;5.10;99.90;;;;;;5012727;28;20550;-59
2021/11/26 11:20:05;;;;;;;5.88;2.55;;;5.10;99.90;;;;;;5012741;28;20579;-59
2021/11/26 11:22:35;;;;;;;6.18;3.08;;;5.10;99.90;;;;;;5000699;28;20270;-59
2021/11/26 11:25:05;;;;;;;4.28;2.35;;;5.10;99.90;;;;;;5001368;28;20217;-59
2021/11/26 11:27:35;;;;;;;9.68;3.05;;;5.10;99.90;;;;;;5006426;28;20219;-59
2021/11/26 11:30:06;;;;;;;5.88;2.50;;;5.10;99.60;;;;;;5007354;28;20228;-56
2021/11/26 11:32:34;;;;;;;8.18;3.65;;;5.10;99.20;;;;;;5011182;28;20607;-55
2021/11/26 11:35:07;;;;;;;5.35;2.65;;;5.10;99.90;;;;;;5008889;28;20305;-56
2021/11/26 11:37:36;;;;;;;4.45;2.83;;;5.10;99.90;;;;;;5009510;28;20214;-56
2021/11/26 11:40:08;;;;;;;6.80;2.33;;;5.20;99.90;;;;;;5012264;28;20218;-56
2021/11/26 11:42:40;;;;;;;3.85;2.55;;;5.30;99.90;;;;;;5012628;28;20220;-56
2021/11/26 11:45:11;;;;;;;4.25;2.22;;;5.30;99.90;;;;;;4993910;28;20704;-56
2021/11/26 11:47:45;;;;;;;5.63;2.50;;;5.30;99.90;;;;;;5007652;28;20276;-56
2021/11/26 11:50:17;;;;;;;7.05;2.10;;;5.30;98.90;;;;;;5010743;28;20301;-56
2021/11/26 11:52:50;;;;;;;4.30;2.55;;;5.20;98.80;;;;;;5012687;28;20643;-56
2021/11/26 11:55:29;;;;;;;4.55;2.25;;;5.20;99.90;;;;;;5012087;28;20229;-56
2021/11/26 11:58:11;;;;;;;9.20;2.83;;;5.40;99.90;;;;;;5042895;28;20226;-56
2021/11/26 12:00:39;;;;;;;4.47;2.30;;;5.40;98.80;;;;;;4993285;28;20446;-56
2021/11/26 12:03:12;;;;;;;4.07;1.58;;;5.40;99.30;;;;;;5012010;28;20225;-56
2021/11/26 12:05:42;;;;;;;5.35;2.60;;;5.40;98.90;;;;;;5009492;28;20308;-56
2021/11/26 12:08:13;;;;;;;3.47;1.75;;;5.40;99.50;;;;;;5012325;28;20217;-56
2021/11/26 12:10:47;;;;;;;6.22;2.80;;;5.50;99.90;;;;;;5011922;28;20217;-56
2021/11/26 12:13:27;;;;;;;8.73;1.80;;;5.50;99.50;;;;;;5000231;28;20240;-56
2021/11/26 12:16:12;;;;;;;5.75;2.22;;;5.50;98.50;;;;;;5005167;28;20221;-56
2021/11/26 12:18:44;;;;;;;4.60;1.88;;;5.50;99.00;;;;;;5010896;28;20275;-56
2021/11/26 12:21:14;;;;;;;5.80;2.25;;;5.50;98.10;;;;;;5010797;28;20229;-56
2021/11/26 12:23:58;;;;;;;4.82;1.98;;;5.50;97.90;;;;;;5011990;28;20663;-56
2021/11/26 12:26:29;;;;;;;3.10;1.63;;;5.50;98.90;;;;;;5010946;28;20275;-56
2021/11/26 12:29:10;;;;;;;5.90;1.58;;;5.60;97.80;;;;;;5006510;28;20252;-56
2021/11/26 12:31:40;;;;;;;6.32;1.92;;;5.60;98.00;;;;;;5011650;28;20225;-56
2021/11/26 12:34:10;;;;;;;3.90;1.85;;;5.60;96.30;;;;;;5011355;28;20186;-56
2021/11/26 12:36:42;;;;;;;7.32;2.15;;;5.60;97.10;;;;;;5008670;28;20221;-56
2021/11/26 12:39:13;;;;;;;9.45;2.40;;;5.70;95.60;;;;;;4999155;28;20186;-56
2021/11/26 12:41:43;;;;;;;5.07;2.55;;;5.70;96.00;;;;;;5011427;28;20341;-56
2021/11/26 12:44:20;;;;;;;4.25;2.15;;;5.70;95.30;;;;;;5010972;28;20583;-56
2021/11/26 12:46:54;;;;;;;5.13;2.08;;;5.70;97.70;;;;;;5010824;28;20738;-56
2021/11/26 12:52:06;;;;;;;4.78;2.20;;;5.70;95.20;;;;;;4997649;28;20225;-56
2021/11/26 12:54:36;;;;;;;6.13;2.65;;;5.70;95.10;;;;;;4992119;28;20190;-56
2021/11/26 12:57:07;;;;;;;9.60;3.22;;;5.70;95.20;;;;;;5001259;28;20225;-56
2021/11/26 12:59:41;;;;;;;7.72;1.83;;;5.70;93.20;;;;;;4994670;28;20190;-56
2021/11/26 13:02:11;;;;;;;6.18;2.50;;;5.70;94.30;;;;;;5011241;28;20224;-56
2021/11/26 13:04:48;;;;;;;7.00;2.90;;;5.70;94.60;;;;;;5007322;28;20194;-56
2021/11/26 13:07:21;;;;;;;4.30;2.10;;;5.80;94.20;;;;;;5009753;28;20213;-56
2021/11/26 13:09:51;;;;;;;6.30;2.88;;;5.80;95.30;;;;;;5010838;28;20221;-56
2021/11/26 13:12:21;;;;;;;2.72;2.53;;;5.80;94.40;;;;;;5009257;28;20202;-56